createdAt,value
2023-08-01T00:02:13.214Z,1.50
2023-08-01T00:04:58.674Z,1.83
2023-08-01T00:07:44.120Z,1.95
2023-08-01T00:10:29.744Z,1.55
2023-08-01T00:13:15.087Z,1.85
2023-08-01T00:16:07.576Z,1.50
2023-08-01T00:18:53.437Z,1.85
2023-08-01T00:21:39.053Z,1.75
2023-08-01T00:24:24.366Z,1.67
2023-08-01T00:27:11.732Z,1.75
2023-08-01T00:29:57.273Z,2.38
2023-08-01T00:32:43.747Z,1.60
2023-08-01T00:35:29.430Z,1.40
2023-08-01T00:38:15.058Z,1.63
2023-08-01T00:41:00.441Z,1.83
2023-08-01T00:43:46.366Z,1.70
2023-08-01T00:46:33.830Z,2.22
2023-08-01T00:49:19.384Z,1.73
2023-08-01T00:52:05.922Z,1.52
2023-08-01T00:54:51.823Z,2.00
2023-08-01T00:57:37.981Z,1.77
2023-08-01T01:00:24.212Z,1.63
2023-08-01T01:03:10.320Z,2.03
2023-08-01T01:06:16.900Z,1.98
2023-08-01T01:09:06.069Z,1.75
2023-08-01T01:11:51.689Z,1.60
2023-08-01T01:14:37.000Z,1.20
2023-08-01T01:17:22.614Z,1.88
2023-08-01T01:20:08.714Z,2.17
2023-08-01T01:22:55.490Z,2.00
2023-08-01T01:25:42.805Z,2.15
2023-08-01T01:28:29.242Z,1.52
2023-08-01T01:31:16.404Z,2.00
2023-08-01T01:34:03.065Z,1.40
2023-08-01T01:36:48.828Z,2.15
2023-08-01T01:39:34.164Z,1.80
2023-08-01T01:42:19.600Z,1.52
2023-08-01T01:45:06.192Z,1.40
2023-08-01T01:47:52.098Z,1.50
2023-08-01T01:50:37.520Z,2.13
2023-08-01T01:53:23.038Z,2.45
2023-08-01T01:56:09.134Z,1.70
2023-08-01T01:58:55.134Z,1.90
2023-08-01T02:01:40.560Z,1.65
2023-08-01T02:04:25.928Z,1.77
2023-08-01T02:07:11.352Z,1.33
2023-08-01T02:09:56.983Z,1.40
2023-08-01T02:12:42.372Z,1.92
2023-08-01T02:15:27.900Z,1.35
2023-08-01T02:18:13.161Z,1.35
2023-08-01T02:20:58.700Z,1.98
2023-08-01T02:23:44.222Z,1.38
2023-08-01T02:26:30.297Z,1.48
2023-08-01T02:29:16.092Z,1.60
2023-08-01T02:32:01.720Z,1.17
2023-08-01T02:34:47.374Z,1.40
2023-08-01T02:37:33.098Z,1.27
2023-08-01T02:40:18.598Z,1.73
2023-08-01T02:43:04.048Z,1.70
2023-08-01T02:45:49.547Z,1.17
2023-08-01T02:48:36.676Z,1.30
2023-08-01T02:51:22.341Z,1.60
2023-08-01T02:54:07.734Z,1.60
2023-08-01T02:56:53.254Z,1.52
2023-08-01T02:59:38.665Z,1.73
2023-08-01T03:02:24.310Z,0.90
2023-08-01T03:05:10.575Z,2.50
2023-08-01T03:07:55.964Z,1.00
2023-08-01T03:10:41.393Z,1.63
2023-08-01T03:13:27.221Z,1.65
2023-08-01T03:16:12.625Z,2.78
2023-08-01T03:18:58.491Z,1.23
2023-08-01T03:21:44.130Z,1.85
2023-08-01T03:24:29.807Z,1.20
2023-08-01T03:27:15.710Z,1.05
2023-08-01T03:30:01.467Z,1.20
2023-08-01T03:32:47.023Z,0.90
2023-08-01T03:35:33.691Z,1.45
2023-08-01T03:38:19.288Z,1.38
2023-08-01T03:41:05.227Z,1.58
2023-08-01T03:43:50.607Z,1.20
2023-08-01T03:46:36.227Z,1.70
2023-08-01T03:49:21.706Z,1.38
2023-08-01T03:52:07.718Z,1.45
2023-08-01T03:54:57.031Z,1.40
2023-08-01T03:57:44.002Z,1.25
2023-08-01T04:00:33.652Z,1.15
2023-08-01T04:03:19.076Z,1.20
2023-08-01T04:06:04.592Z,1.60
2023-08-01T04:08:50.057Z,1.55
2023-08-01T04:11:35.721Z,1.35
2023-08-01T04:14:21.466Z,1.40
2023-08-01T04:17:06.820Z,1.05
2023-08-01T04:19:52.368Z,1.63
2023-08-01T04:22:38.185Z,1.15
2023-08-01T04:25:26.121Z,1.42
2023-08-01T04:28:12.243Z,1.85
2023-08-01T04:30:57.751Z,1.10
2023-08-01T04:33:44.356Z,1.60
2023-08-01T04:36:29.974Z,1.05
2023-08-01T04:39:16.696Z,1.27
2023-08-01T04:42:02.719Z,1.42
2023-08-01T04:44:48.276Z,1.02
2023-08-01T04:47:34.097Z,1.42
2023-08-01T04:50:19.497Z,2.08
2023-08-01T04:53:05.255Z,1.30
2023-08-01T04:55:51.366Z,1.05
2023-08-01T04:58:36.701Z,1.02
2023-08-01T05:01:22.722Z,1.30
2023-08-01T05:04:08.545Z,1.17
2023-08-01T05:06:53.891Z,1.42
2023-08-01T05:09:39.464Z,1.50
2023-08-01T05:12:24.859Z,1.30
2023-08-01T05:15:10.820Z,1.30
2023-08-01T05:17:57.081Z,1.27
2023-08-01T05:20:42.692Z,1.17
2023-08-01T05:23:28.124Z,0.68
2023-08-01T05:26:14.055Z,1.05
2023-08-01T05:28:59.357Z,1.02
2023-08-01T05:31:44.908Z,1.27
2023-08-01T05:34:30.202Z,1.65
2023-08-01T05:37:15.690Z,1.38
2023-08-01T05:40:01.099Z,1.25
2023-08-01T05:42:46.605Z,1.23
2023-08-01T05:45:32.156Z,1.40
2023-08-01T05:48:17.519Z,1.40
2023-08-01T05:51:03.105Z,1.08
2023-08-01T05:53:48.512Z,1.02
2023-08-01T05:56:34.127Z,1.17
2023-08-01T05:59:19.588Z,1.40
2023-08-01T06:02:05.164Z,1.13
2023-08-01T06:04:51.147Z,1.48
2023-08-01T06:07:36.785Z,1.10
2023-08-01T06:10:23.362Z,1.38
2023-08-01T06:13:09.699Z,1.48
2023-08-01T06:15:55.207Z,1.50
2023-08-01T06:18:41.133Z,1.40
2023-08-01T06:21:26.882Z,1.13
2023-08-01T06:24:12.557Z,0.93
2023-08-01T06:26:58.108Z,1.02
2023-08-01T06:29:43.391Z,1.05
2023-08-01T06:32:29.085Z,1.52
2023-08-01T06:35:14.462Z,1.42
2023-08-01T06:37:59.899Z,1.27
2023-08-01T06:40:45.505Z,1.45
2023-08-01T06:43:30.955Z,0.77
2023-08-01T06:46:16.482Z,1.05
2023-08-01T06:49:02.465Z,1.60
2023-08-01T06:51:48.253Z,1.77
2023-08-01T06:54:33.885Z,0.98
2023-08-01T06:57:19.472Z,1.60
2023-08-01T07:00:05.833Z,1.40
2023-08-01T07:02:51.594Z,1.15
2023-08-01T07:05:36.880Z,1.25
2023-08-01T07:08:22.570Z,1.27
2023-08-01T07:11:08.199Z,1.13
2023-08-01T07:13:53.629Z,1.35
2023-08-01T07:16:39.288Z,2.15
2023-08-01T07:19:24.922Z,1.27
2023-08-01T07:22:10.477Z,1.70
2023-08-01T07:24:56.052Z,1.00
2023-08-01T07:27:41.619Z,1.52
2023-08-01T07:30:30.552Z,1.73
2023-08-01T07:33:15.969Z,1.00
2023-08-01T07:36:01.960Z,0.98
2023-08-01T07:38:47.377Z,1.02
2023-08-01T07:41:34.391Z,1.38
2023-08-01T07:44:19.938Z,2.03
2023-08-01T07:47:05.512Z,1.08
2023-08-01T07:49:51.666Z,0.95
2023-08-01T07:52:37.285Z,1.73
2023-08-01T07:55:22.996Z,1.25
2023-08-01T07:58:08.746Z,0.70
2023-08-01T08:00:54.379Z,0.80
2023-08-01T08:03:40.105Z,0.70
2023-08-01T08:06:25.672Z,0.80
2023-08-01T08:09:11.047Z,0.60
2023-08-01T08:11:58.590Z,1.08
2023-08-01T08:14:44.157Z,0.77
2023-08-01T08:17:29.624Z,1.02
2023-08-01T08:20:15.091Z,0.98
2023-08-01T08:23:00.560Z,0.57
2023-08-01T08:25:47.482Z,0.93
2023-08-01T08:28:34.661Z,0.73
2023-08-01T08:31:20.206Z,0.40
2023-08-01T08:34:05.714Z,0.85
2023-08-01T08:36:51.816Z,0.50
2023-08-01T08:39:37.558Z,0.70
2023-08-01T08:42:22.914Z,0.80
2023-08-01T08:45:08.675Z,0.70
2023-08-01T08:48:02.092Z,1.00
2023-08-01T08:50:48.292Z,0.82
2023-08-01T08:53:34.103Z,1.27
2023-08-01T08:56:19.848Z,0.50
2023-08-01T08:59:06.287Z,1.10
2023-08-01T09:01:52.037Z,1.08
2023-08-01T09:04:37.530Z,0.30
2023-08-01T09:07:25.866Z,0.65
2023-08-01T09:10:11.376Z,0.65
2023-08-01T09:12:57.078Z,0.57
2023-08-01T09:15:46.113Z,0.43
2023-08-01T09:18:32.220Z,0.50
2023-08-01T09:21:21.866Z,0.40
2023-08-01T09:24:19.011Z,0.60
2023-08-01T09:27:09.776Z,0.57
2023-08-01T09:30:05.490Z,0.60
2023-08-01T09:32:57.848Z,0.40
2023-08-01T09:38:36.020Z,0.82
2023-08-01T09:41:21.812Z,0.45
2023-08-01T09:44:07.447Z,0.30
2023-08-01T09:47:11.895Z,0.57
2023-08-01T09:49:57.379Z,0.57
2023-08-01T09:52:42.898Z,0.40
2023-08-01T09:55:33.920Z,0.43
2023-08-01T09:58:23.548Z,0.35
2023-08-01T10:01:09.244Z,0.22
2023-08-01T10:03:55.103Z,0.35
2023-08-01T10:06:47.129Z,0.40
2023-08-01T10:09:33.484Z,0.40
2023-08-01T10:12:19.680Z,0.35
2023-08-01T10:15:06.164Z,0.30
2023-08-01T10:17:51.750Z,0.50
2023-08-01T10:20:38.930Z,0.20
2023-08-01T10:23:25.962Z,0.80
2023-08-01T10:26:13.185Z,0.30
2023-08-01T10:29:01.194Z,0.40
2023-08-01T10:31:54.402Z,0.30
2023-08-01T10:34:40.159Z,0.50
2023-08-01T10:37:25.605Z,0.38
2023-08-01T10:40:14.143Z,0.30
2023-08-01T10:43:01.134Z,0.40
2023-08-01T10:45:46.708Z,0.30
2023-08-01T10:48:32.626Z,0.13
2023-08-01T10:51:18.078Z,0.47
2023-08-01T10:54:04.067Z,0.30
2023-08-01T10:56:51.343Z,0.38
2023-08-01T10:59:40.287Z,0.20
2023-08-01T11:02:28.272Z,0.30
2023-08-01T11:05:13.855Z,0.93
2023-08-01T11:08:02.416Z,0.40
2023-08-01T11:10:50.717Z,0.30
2023-08-01T11:13:37.195Z,0.25
2023-08-01T11:16:22.672Z,0.60
2023-08-01T11:19:22.634Z,0.30
2023-08-01T11:22:11.536Z,0.30
2023-08-01T11:24:57.110Z,0.57
2023-08-01T11:27:43.000Z,0.73
2023-08-01T11:30:33.723Z,0.32
2023-08-01T11:33:22.429Z,0.40
2023-08-01T11:36:09.264Z,0.73
2023-08-01T11:38:57.120Z,0.30
2023-08-01T11:41:43.245Z,0.13
2023-08-01T11:44:28.972Z,0.28
2023-08-01T11:47:16.000Z,0.50
2023-08-01T11:50:01.552Z,0.20
2023-08-01T11:52:48.478Z,0.40
2023-08-01T11:55:37.363Z,0.15
2023-08-01T11:58:34.333Z,0.55
2023-08-01T12:01:20.123Z,0.20
2023-08-01T12:04:05.949Z,0.30
2023-08-01T12:06:51.570Z,0.22
2023-08-01T12:09:37.162Z,0.60
2023-08-01T12:12:22.891Z,0.10
2023-08-01T12:15:08.894Z,0.25
2023-08-01T12:17:54.159Z,0.10
2023-08-01T12:20:39.594Z,0.25
2023-08-01T12:23:25.089Z,0.20
2023-08-01T12:26:10.606Z,0.10
2023-08-01T12:28:56.313Z,0.30
2023-08-01T12:31:42.368Z,0.15
2023-08-01T12:34:27.905Z,0.40
2023-08-01T12:37:13.609Z,0.35
2023-08-01T12:39:58.978Z,0.40
2023-08-01T12:42:44.571Z,0.30
2023-08-01T12:45:29.932Z,0.30
2023-08-01T12:48:15.450Z,0.43
2023-08-01T12:51:00.987Z,0.35
2023-08-01T12:53:46.558Z,0.40
2023-08-01T12:56:33.656Z,0.20
2023-08-01T12:59:19.005Z,0.20
2023-08-01T13:02:09.465Z,0.28
2023-08-01T13:04:54.837Z,0.22
2023-08-01T13:07:40.658Z,0.20
2023-08-01T13:10:26.317Z,0.57
2023-08-01T13:13:11.848Z,0.20
2023-08-01T13:15:58.769Z,0.35
2023-08-01T13:18:49.147Z,0.20
2023-08-01T13:21:38.213Z,0.20
2023-08-01T13:24:24.163Z,0.22
2023-08-01T13:27:10.985Z,0.08
2023-08-01T13:29:56.375Z,0.57
2023-08-01T13:32:42.735Z,0.30
2023-08-01T13:35:29.013Z,0.20
2023-08-01T13:38:14.873Z,0.20
2023-08-01T13:41:02.490Z,0.30
2023-08-01T13:43:48.102Z,0.20
2023-08-01T13:46:33.683Z,0.10
2023-08-01T13:49:18.836Z,0.43
2023-08-01T13:52:05.643Z,0.30
2023-08-01T13:54:50.939Z,0.13
2023-08-01T13:57:36.384Z,0.20
2023-08-01T14:00:21.900Z,0.20
2023-08-01T14:03:07.668Z,0.20
2023-08-01T14:05:53.036Z,0.40
2023-08-01T14:08:39.592Z,0.30
2023-08-01T14:11:25.177Z,0.10
2023-08-01T14:14:10.763Z,0.15
2023-08-01T14:16:56.202Z,0.10
2023-08-01T14:19:41.641Z,0.10
2023-08-01T14:22:27.227Z,0.28
2023-08-01T14:25:12.863Z,0.30
2023-08-01T14:27:58.419Z,0.10
2023-08-01T14:30:43.722Z,0.40
2023-08-01T14:33:29.369Z,0.20
2023-08-01T14:36:14.876Z,0.20
2023-08-01T14:39:09.642Z,0.30
2023-08-01T14:42:05.308Z,0.20
2023-08-01T14:44:55.488Z,0.20
2023-08-01T14:47:43.110Z,0.10
2023-08-01T14:50:28.287Z,0.20
2023-08-01T14:53:13.782Z,0.10
2023-08-01T14:56:04.133Z,0.17
2023-08-01T14:58:49.791Z,0.30
2023-08-01T15:01:35.283Z,0.22
2023-08-01T15:04:20.793Z,0.10
2023-08-01T15:07:07.673Z,0.10
2023-08-01T15:09:54.001Z,0.00
2023-08-01T15:12:39.412Z,0.13
2023-08-01T15:15:25.026Z,0.10
2023-08-01T15:18:10.648Z,0.17
2023-08-01T15:20:56.360Z,0.13
2023-08-01T15:23:42.109Z,0.20
2023-08-01T15:26:27.723Z,0.20
2023-08-01T15:29:14.035Z,0.05
2023-08-01T15:31:59.531Z,0.20
2023-08-01T15:34:44.839Z,0.10
2023-08-01T15:37:30.195Z,0.13
2023-08-01T15:40:15.543Z,0.10
2023-08-01T15:43:01.129Z,0.15
2023-08-01T15:45:46.548Z,0.10
2023-08-01T15:48:35.777Z,0.30
2023-08-01T15:51:21.062Z,0.25
2023-08-01T15:54:06.608Z,0.25
2023-08-01T15:56:54.222Z,0.10
2023-08-01T15:59:39.894Z,0.03
2023-08-01T16:02:25.238Z,0.10
2023-08-01T16:05:11.323Z,0.10
2023-08-01T16:07:57.258Z,0.10
2023-08-01T16:10:43.380Z,0.20
2023-08-01T16:13:29.092Z,0.17
2023-08-01T16:16:14.910Z,0.20
2023-08-01T16:19:00.255Z,0.10
2023-08-01T16:21:45.734Z,0.10
2023-08-01T16:24:31.137Z,0.10
2023-08-01T16:27:16.654Z,0.20
2023-08-01T16:30:02.083Z,0.15
2023-08-01T16:32:47.739Z,0.20
2023-08-01T16:35:34.978Z,0.20
2023-08-01T16:38:20.705Z,0.10
2023-08-01T16:41:07.864Z,0.00
2023-08-01T16:43:55.360Z,0.10
2023-08-01T16:46:41.014Z,0.20
2023-08-01T16:49:26.596Z,0.10
2023-08-01T16:52:12.129Z,0.28
2023-08-01T16:54:57.619Z,0.60
2023-08-01T16:57:43.713Z,0.70
2023-08-01T17:00:29.515Z,0.32
2023-08-01T17:03:15.023Z,0.50
2023-08-01T17:06:00.649Z,0.55
2023-08-01T17:08:45.971Z,0.55
2023-08-01T17:11:31.387Z,0.90
2023-08-01T17:14:16.864Z,0.60
2023-08-01T17:17:02.543Z,0.60
2023-08-01T17:19:49.483Z,0.65
2023-08-01T17:22:34.863Z,0.93
2023-08-01T17:25:20.429Z,0.40
2023-08-01T17:28:05.950Z,0.70
2023-08-01T17:30:54.257Z,0.52
2023-08-01T17:33:40.774Z,0.70
2023-08-01T17:36:26.402Z,1.00
2023-08-01T17:39:12.314Z,0.50
2023-08-01T17:41:58.163Z,0.30
2023-08-01T17:44:44.071Z,0.43
2023-08-01T17:47:29.628Z,0.20
2023-08-01T17:50:15.110Z,0.20
2023-08-01T17:53:00.919Z,0.10
2023-08-01T17:55:46.404Z,0.30
2023-08-01T17:58:32.146Z,0.30
2023-08-01T18:01:17.544Z,0.47
2023-08-01T18:04:04.112Z,0.28
2023-08-01T18:06:49.570Z,0.20
2023-08-01T18:09:35.387Z,0.47
2023-08-01T18:12:21.250Z,0.68
2023-08-01T18:15:07.351Z,0.55
2023-08-01T18:17:53.095Z,0.85
2023-08-01T18:20:38.354Z,0.47
2023-08-01T18:23:23.786Z,0.73
2023-08-01T18:26:17.901Z,0.80
2023-08-01T18:29:03.856Z,0.50
2023-08-01T18:31:49.498Z,0.57
2023-08-01T18:34:36.725Z,0.52
2023-08-01T18:37:22.971Z,0.63
2023-08-01T18:40:09.035Z,0.85
2023-08-01T18:42:54.734Z,0.70
2023-08-01T18:45:40.115Z,0.60
2023-08-01T18:48:25.597Z,0.70
2023-08-01T18:51:16.271Z,0.52
2023-08-01T18:54:04.712Z,0.60
2023-08-01T18:56:50.371Z,0.82
2023-08-01T18:59:35.963Z,0.52
2023-08-01T19:02:23.557Z,0.63
2023-08-01T19:05:11.120Z,1.00
2023-08-01T19:07:56.620Z,0.43
2023-08-01T19:10:41.997Z,0.60
2023-08-01T19:13:27.347Z,0.88
2023-08-01T19:16:12.962Z,0.45
2023-08-01T19:18:58.303Z,0.80
2023-08-01T19:21:43.791Z,0.38
2023-08-01T19:24:29.115Z,0.88
2023-08-01T19:27:14.482Z,0.63
2023-08-01T19:29:59.924Z,0.45
2023-08-01T19:32:45.264Z,0.75
2023-08-01T19:35:30.817Z,0.70
2023-08-01T19:38:16.254Z,0.52
2023-08-01T19:41:02.495Z,0.57
2023-08-01T19:43:48.344Z,0.40
2023-08-01T19:46:33.903Z,0.70
2023-08-01T19:49:19.726Z,0.88
2023-08-01T19:52:07.012Z,0.50
2023-08-01T19:54:52.492Z,1.15
2023-08-01T19:57:38.198Z,0.63
2023-08-01T20:00:24.014Z,0.95
2023-08-01T20:03:09.528Z,0.90
2023-08-01T20:05:59.470Z,1.00
2023-08-01T20:08:45.158Z,1.75
2023-08-01T20:11:30.668Z,1.30
2023-08-01T20:14:16.245Z,1.17
2023-08-01T20:17:01.851Z,1.17
2023-08-01T20:19:47.671Z,1.40
2023-08-01T20:22:34.093Z,1.33
2023-08-01T20:25:19.428Z,0.93
2023-08-01T20:28:06.038Z,1.45
2023-08-01T20:30:52.212Z,1.13
2023-08-01T20:33:37.491Z,1.50
2023-08-01T20:36:23.024Z,2.30
2023-08-01T20:39:09.216Z,1.52
2023-08-01T20:41:55.034Z,1.42
2023-08-01T20:44:40.614Z,2.13
2023-08-01T20:47:26.047Z,1.67
2023-08-01T20:50:11.817Z,1.95
2023-08-01T20:52:58.317Z,2.00
2023-08-01T20:55:44.317Z,1.52
2023-08-01T20:58:30.067Z,2.20
2023-08-01T21:01:15.473Z,2.00
2023-08-01T21:04:01.076Z,2.03
2023-08-01T21:06:46.985Z,1.73
2023-08-01T21:09:33.135Z,2.10
2023-08-01T21:12:18.549Z,1.45
2023-08-01T21:15:04.708Z,2.10
2023-08-01T21:17:50.448Z,1.55
2023-08-01T21:20:36.091Z,1.60
2023-08-01T21:23:21.943Z,1.83
2023-08-01T21:26:07.709Z,1.70
2023-08-01T21:28:53.026Z,1.75
2023-08-01T21:31:38.546Z,1.85
2023-08-01T21:34:23.906Z,1.77
2023-08-01T21:37:09.694Z,1.80
2023-08-01T21:39:55.469Z,1.00
2023-08-01T21:42:40.933Z,1.33
2023-08-01T21:45:26.552Z,1.10
2023-08-01T21:48:11.996Z,1.42
2023-08-01T21:50:57.519Z,1.52
2023-08-01T21:53:42.953Z,1.33
2023-08-01T21:56:28.212Z,1.55
2023-08-01T21:59:13.861Z,1.52
2023-08-01T22:01:59.098Z,1.58
2023-08-01T22:04:45.131Z,1.30
2023-08-01T22:07:30.696Z,1.83
2023-08-01T22:10:16.940Z,1.33
2023-08-01T22:13:04.281Z,1.50
2023-08-01T22:15:51.906Z,1.40
2023-08-01T22:18:37.505Z,1.63
2023-08-01T22:21:23.061Z,1.42
2023-08-01T22:24:09.639Z,1.35
2023-08-01T22:26:55.155Z,0.80
2023-08-01T22:29:41.218Z,1.33
2023-08-01T22:32:27.280Z,1.38
2023-08-01T22:35:13.121Z,1.02
2023-08-01T22:37:59.261Z,1.17
2023-08-01T22:40:44.986Z,1.40
2023-08-01T22:43:30.481Z,1.55
2023-08-01T22:46:16.009Z,1.63
2023-08-01T22:49:01.626Z,1.60
2023-08-01T22:51:47.201Z,1.60
2023-08-01T22:54:32.994Z,1.83
2023-08-01T22:57:18.956Z,1.77
2023-08-01T23:00:05.610Z,1.70
2023-08-01T23:02:52.255Z,1.75
2023-08-01T23:05:37.885Z,1.50
2023-08-01T23:08:23.608Z,1.90
2023-08-01T23:11:09.453Z,1.50
2023-08-01T23:13:55.183Z,1.52
2023-08-01T23:16:40.859Z,1.48
2023-08-01T23:19:26.619Z,1.23
2023-08-01T23:22:12.002Z,1.00
2023-08-01T23:24:57.577Z,1.05
2023-08-01T23:27:43.143Z,1.30
2023-08-01T23:30:29.017Z,1.08
2023-08-01T23:33:14.806Z,1.20
2023-08-01T23:36:00.344Z,0.90
2023-08-01T23:38:45.858Z,1.25
2023-08-01T23:41:31.381Z,1.52
2023-08-01T23:44:16.796Z,1.08
2023-08-01T23:47:02.250Z,1.27
2023-08-01T23:49:47.731Z,1.15
2023-08-01T23:52:33.723Z,0.90
2023-08-01T23:55:19.149Z,0.80
2023-08-01T23:58:04.497Z,1.10
